VAA weather

Vaasa Airport
Vaasa, Western Finland, Finland

Public forecast

Using degrees Celsius for public forecast. Weather courtesy of forecast.io.

METAR (pilot weather report)

Retrieved 2019/07/17 20:20 UTC (0 seconds ago):

EFVA 172020Z AUTO 01005KT CAVOK 12/10 Q1012

TAF (pilot weather forecast)

Retrieved 2019/07/17 21:42 UTC (0 seconds ago):

TAF EFVA 172035Z 1721/1821 02008KT CAVOK BECMG 1723/1801 3000 BR NSC BECMG 1801/1803 0700 FG VV002 BECMG 1803/1805 FEW002